Temp: 15.2°C   Baro: 1019.3mb
  Wind: 9.0mph   Dir: WNW (298°)
  Rain: 0.2mm (0.0mm/hr)
  Solar: 174W/m2  Hum: 69%
 
Bath Spa Weather Station Historical Data
Daily Summary for December 03, 2019 Units:  English    Metric   Both
Daily Weekly Monthly Yearly Custom
  High: Low: Average:
Temperature: 49.8 °F 34.5 °F 41.4 °F
Dew Point: 41.5 °F 32.2 °F 37 °F
Humidity: 93% 63.4% 85%
Wind Speed: 6.9mph 0mph 0.8mph
Wind Gust: 15mph - -
Wind- - WSW
Pressure: 30.46 in 30.20 in -
Precipitation: 0.00 in    
Historical Graphs
 
 
Tabular Data for December 03, 2019
Time Temperature Dew Point Pressure Wind Wind Speed Wind Gust Humidity Rainfall Rate (Hourly) solar
00:04 36.7 °F 34.5 °F 30.46 in Calm     92% 0.00 in 0 W/m2
00:09 36.7 °F 34.5 °F 30.46 in Calm     92% 0.00 in 0 W/m2
00:14 36.9 °F 34.7 °F 30.46 in Calm     92% 0.00 in 0 W/m2
00:19 36.9 °F 34.8 °F 30.46 in Calm     92% 0.00 in 0 W/m2
00:24 37 °F 34.8 °F 30.46 in Calm     92% 0.00 in 0 W/m2
00:29 37 °F 34.9 °F 30.46 in Calm     92% 0.00 in 0 W/m2
00:34 37 °F 34.8 °F 30.46 in Calm     92% 0.00 in 0 W/m2
00:39 37 °F 34.8 °F 30.45 in Calm     92% 0.00 in 0 W/m2
00:44 36.9 °F 34.8 °F 30.45 in Calm     92% 0.00 in 0 W/m2
00:49 37 °F 34.9 °F 30.45 in Calm     92% 0.00 in 0 W/m2
00:54 37 °F 34.9 °F 30.45 in Calm     92% 0.00 in 0 W/m2
00:59 37 °F 34.9 °F 30.45 in Calm     92% 0.00 in 0 W/m2
01:04 37 °F 34.9 °F 30.45 in Calm     92% 0.00 in 0 W/m2
01:09 37.2 °F 35.1 °F 30.45 in Calm     92% 0.00 in 0 W/m2
01:14 37.2 °F 35.2 °F 30.45 in Calm     92.2% 0.00 in 0 W/m2
01:19 37.2 °F 35.1 °F 30.45 in Calm     92% 0.00 in 0 W/m2
01:24 37.2 °F 35.2 °F 30.45 in Calm     92.2% 0.00 in 0 W/m2
01:29 37.3 °F 35.1 °F 30.44 in Calm     92% 0.00 in 0 W/m2
01:34 37.2 °F 35.1 °F 30.45 in Calm     92% 0.00 in 0 W/m2
01:39 37.4 °F 35.4 °F 30.45 in Calm     92.6% 0.00 in 0 W/m2
01:44 37.5 °F 35.3 °F 30.45 in Calm     92% 0.00 in 0 W/m2
01:49 37.4 °F 35.4 °F 30.45 in Calm     92.4% 0.00 in 0 W/m2
01:54 37.4 °F 35.2 °F 30.45 in Calm     92.2% 0.00 in 0 W/m2
01:59 37.4 °F 35.2 °F 30.44 in Calm     92% 0.00 in 0 W/m2
02:04 37.5 °F 35.4 °F 30.44 in Calm     92.2% 0.00 in 0 W/m2
02:09 37.6 °F 35.4 °F 30.44 in Calm     92% 0.00 in 0 W/m2
02:14 37.6 °F 35.4 °F 30.44 in Calm     92% 0.00 in 0 W/m2
02:19 37.7 °F 35.5 °F 30.44 in Calm     92% 0.00 in 0 W/m2
02:24 37.6 °F 35.4 °F 30.43 in Calm     92% 0.00 in 0 W/m2
02:29 37.4 °F 35.2 °F 30.43 in Calm     92% 0.00 in 0 W/m2
02:34 37.4 °F 35.2 °F 30.43 in Calm     92% 0.00 in 0 W/m2
02:39 37.5 °F 35.3 °F 30.43 in Calm     92% 0.00 in 0 W/m2
02:44 37.6 °F 35.4 °F 30.42 in Calm     92% 0.00 in 0 W/m2
02:49 37.6 °F 35.4 °F 30.42 in Calm     92% 0.00 in 0 W/m2
02:54 37.8 °F 35.6 °F 30.42 in Calm     92% 0.00 in 0 W/m2
02:59 37.8 °F 35.8 °F 30.42 in Calm     92.4% 0.00 in 0 W/m2
03:04 37.9 °F 36.1 °F 30.42 in Calm     93% 0.00 in 0 W/m2
03:09 37.9 °F 36.1 °F 30.42 in Calm     93% 0.00 in 0 W/m2
03:14 37.9 °F 36.1 °F 30.42 in Calm     93% 0.00 in 0 W/m2
03:19 37.9 °F 36.1 °F 30.42 in Calm     93% 0.00 in 0 W/m2
03:24 37.9 °F 36.1 °F 30.42 in Calm     93% 0.00 in 0 W/m2
03:29 38.1 °F 36.3 °F 30.42 in Calm     93% 0.00 in 0 W/m2
03:34 38.1 °F 36.3 °F 30.42 in Calm     93% 0.00 in 0 W/m2
03:39 38.3 °F 36.4 °F 30.41 in Calm     92.8% 0.00 in 0 W/m2
03:44 38.3 °F 36.4 °F 30.41 in Calm     92.6% 0.00 in 0 W/m2
03:49 38.3 °F 36.2 °F 30.41 in Calm     92.3% 0.00 in 0 W/m2
03:54 38.4 °F 36.3 °F 30.41 in Calm     92.2% 0.00 in 0 W/m2
03:59 38.4 °F 36.2 °F 30.41 in Calm     92% 0.00 in 0 W/m2
04:04 38.5 °F 36.5 °F 30.41 in Calm     92.6% 0.00 in 0 W/m2
04:09 38.5 °F 36.6 °F 30.41 in Calm     92.8% 0.00 in 0 W/m2
04:14 38.6 °F 36.6 °F 30.41 in Calm     92.6% 0.00 in 0 W/m2
04:19 38.7 °F 36.9 °F 30.41 in Calm     93% 0.00 in 0 W/m2
04:24 38.7 °F 36.9 °F 30.40 in Calm     93% 0.00 in 0 W/m2
04:28 38.7 °F 36.9 °F 30.40 in Calm     93% 0.00 in 0 W/m2
04:34 38.7 °F 36.9 °F 30.40 in Calm     93% 0.00 in 0 W/m2
04:39 38.7 °F 36.9 °F 30.40 in Calm     93% 0.00 in 0 W/m2
04:44 38.7 °F 36.9 °F 30.40 in Calm     93% 0.00 in 0 W/m2
04:49 38.8 °F 37 °F 30.40 in Calm     93% 0.00 in 0 W/m2
04:54 38.8 °F 37 °F 30.39 in Calm     93% 0.00 in 0 W/m2
04:59 38.8 °F 37 °F 30.39 in Calm     93% 0.00 in 0 W/m2
05:04 38.8 °F 37 °F 30.39 in Calm     93% 0.00 in 0 W/m2
05:09 38.8 °F 37 °F 30.39 in Calm     93% 0.00 in 0 W/m2
05:14 39 °F 37.2 °F 30.39 in Calm     93% 0.00 in 0 W/m2
05:19 38.8 °F 37 °F 30.39 in Calm     93% 0.00 in 0 W/m2
05:24 39 °F 37.2 °F 30.38 in Calm     93% 0.00 in 0 W/m2
05:29 39.2 °F 37.4 °F 30.38 in Calm     93% 0.00 in 0 W/m2
05:34 39.2 °F 37.4 °F 30.38 in Calm     93% 0.00 in 0 W/m2
05:39 39.2 °F 37.4 °F 30.38 in Calm     93% 0.00 in 0 W/m2
05:44 39.2 °F 37.4 °F 30.39 in Calm     93% 0.00 in 0 W/m2
05:49 39.3 °F 37.5 °F 30.39 in Calm     93% 0.00 in 0 W/m2
05:54 39.3 °F 37.6 °F 30.38 in Calm     93% 0.00 in 0 W/m2
05:59 39.4 °F 37.6 °F 30.38 in Calm     93% 0.00 in 0 W/m2
06:04 39.4 °F 37.6 °F 30.39 in Calm     93% 0.00 in 0 W/m2
06:09 39.6 °F 37.8 °F 30.39 in Calm     93% 0.00 in 0 W/m2
06:14 39.5 °F 37.7 °F 30.39 in Calm     93% 0.00 in 0 W/m2
06:19 39.6 °F 37.8 °F 30.39 in Calm     93% 0.00 in 0 W/m2
06:24 39.7 °F 37.9 °F 30.39 in Calm     93% 0.00 in 0 W/m2
06:29 39.7 °F 37.9 °F 30.39 in Calm     93% 0.00 in 0 W/m2
06:34 39.7 °F 37.9 °F 30.39 in Calm     93% 0.00 in 0 W/m2
06:39 39.8 °F 38 °F 30.39 in Calm     93% 0.00 in 0 W/m2
06:44 39.9 °F 38.1 °F 30.39 in Calm     93% 0.00 in 0 W/m2
06:49 39.9 °F 38.1 °F 30.38 in Calm     93% 0.00 in 0 W/m2
06:54 40 °F 38.2 °F 30.38 in Calm     93% 0.00 in 0 W/m2
06:59 39.9 °F 38.1 °F 30.39 in Calm     93% 0.00 in 0 W/m2
07:04 39.9 °F 38.1 °F 30.39 in Calm     93% 0.00 in 0 W/m2
07:09 39.9 °F 38.1 °F 30.39 in Calm     93% 0.00 in 0 W/m2
07:14 39.9 °F 38.1 °F 30.39 in Calm     93% 0.00 in 0 W/m2
07:19 39.9 °F 38.1 °F 30.39 in Calm     93% 0.00 in 0 W/m2
07:24 39.9 °F 38.1 °F 30.39 in Calm     93% 0.00 in 0 W/m2
07:29 39.9 °F 38.1 °F 30.39 in Calm     93% 0.00 in 0 W/m2
07:34 40 °F 38.2 °F 30.39 in Calm     93% 0.00 in 0 W/m2
07:39 40 °F 38.2 °F 30.39 in Calm     93% 0.00 in 0 W/m2
07:44 40.1 °F 38.3 °F 30.39 in Calm     93% 0.00 in 0 W/m2
07:49 39.9 °F 38.1 °F 30.39 in Calm     93% 0.00 in 0 W/m2
07:54 39.9 °F 38.1 °F 30.39 in Calm     93% 0.00 in 0 W/m2
07:59 39.9 °F 38.1 °F 30.39 in West 0.6 mph 2 mph 93% 0.00 in 0 W/m2
08:04 40.1 °F 38.3 °F 30.39 in West 1.5 mph 3 mph 93% 0.00 in 5 W/m2
08:09 40.3 °F 38.5 °F 30.39 in West 1 mph 3 mph 93% 0.00 in 7 W/m2
08:14 40.4 °F 38.6 °F 30.39 in West 0.4 mph 2 mph 93% 0.00 in 12 W/m2
08:19 40.6 °F 38.8 °F 30.39 in West 0.4 mph 2 mph 93% 0.00 in 14 W/m2
08:24 40.6 °F 38.8 °F 30.39 in Calm     93% 0.00 in 18 W/m2
08:29 40.6 °F 38.4 °F 30.39 in West 0.4 mph 1 mph 92% 0.00 in 19 W/m2
08:34 40.6 °F 38.4 °F 30.39 in West 1.2 mph 2 mph 92% 0.00 in 19 W/m2
08:39 40.6 °F 38.5 °F 30.39 in West 2.3 mph 4 mph 92% 0.00 in 16 W/m2
08:44 40.6 °F 38.4 °F 30.39 in West 1.4 mph 3 mph 91.2% 0.00 in 19 W/m2
08:49 40.8 °F 38.5 °F 30.39 in West 1.7 mph 3 mph 91% 0.00 in 23 W/m2
08:54 40.9 °F 38.2 °F 30.39 in West 0.7 mph 2 mph 90% 0.00 in 26 W/m2
08:59 41 °F 38.1 °F 30.39 in West 1.1 mph 3 mph 89.6% 0.00 in 40 W/m2
09:04 41 °F 37.9 °F 30.39 in West 2 mph 3 mph 89% 0.00 in 49 W/m2
09:09 41.1 °F 37.9 °F 30.39 in West 1.1 mph 3 mph 88.2% 0.00 in 56 W/m2
09:14 41.2 °F 37.9 °F 30.39 in West 0.2 mph 2 mph 88% 0.00 in 56 W/m2
09:19 41.4 °F 37.8 °F 30.38 in West 0.5 mph 1 mph 87.2% 0.00 in 60 W/m2
09:24 41.5 °F 37.8 °F 30.38 in Calm   1 mph 86.4% 0.00 in 60 W/m2
09:29 41.7 °F 37.8 °F 30.38 in Calm   1 mph 86% 0.00 in 60 W/m2
09:34 41.9 °F 37.8 °F 30.38 in West 1.2 mph 2 mph 85% 0.00 in 58 W/m2
09:39 42 °F 37.8 °F 30.39 in West 0.4 mph 2 mph 84.8% 0.00 in 58 W/m2
09:44 42.1 °F 37.6 °F 30.38 in Calm   1 mph 84% 0.00 in 72 W/m2
09:49 42.3 °F 37.8 °F 30.38 in WSW 0.4 mph 2 mph 83.8% 0.00 in 77 W/m2
09:54 42.5 °F 37.7 °F 30.38 in Calm   2 mph 82.8% 0.00 in 72 W/m2
09:59 43 °F 37.8 °F 30.38 in WSW 0.2 mph 2 mph 81.6% 0.00 in 69 W/m2
10:04 43.2 °F 37.6 °F 30.38 in WSW 0.4 mph 3 mph 80.6% 0.00 in 84 W/m2
10:09 43.3 °F 37.6 °F 30.38 in WSW 0.5 mph 2 mph 80% 0.00 in 81 W/m2
10:14 43.5 °F 37.6 °F 30.38 in Calm   1 mph 79.6% 0.00 in 91 W/m2
10:19 43.7 °F 37.6 °F 30.38 in WSW 0.4 mph 2 mph 79% 0.00 in 120 W/m2
10:24 44 °F 37.7 °F 30.38 in Calm     78.6% 0.00 in 134 W/m2
10:29 44.1 °F 37.6 °F 30.38 in Calm     77.8% 0.00 in 125 W/m2
10:34 44.5 °F 37.9 °F 30.38 in Calm     77.8% 0.00 in 123 W/m2
10:39 45 °F 38.2 °F 30.37 in Calm     77.2% 0.00 in 120 W/m2
10:44 45 °F 38.1 °F 30.37 in Calm     76.8% 0.00 in 113 W/m2
10:49 45 °F 37.9 °F 30.37 in Calm     76.2% 0.00 in 114 W/m2
10:54 45.1 °F 38.2 °F 30.37 in Calm     77% 0.00 in 128 W/m2
10:59 45.4 °F 38.4 °F 30.37 in Calm     76.6% 0.00 in 128 W/m2
11:04 45.8 °F 38.6 °F 30.36 in WSW 0.8 mph 4 mph 76% 0.00 in 128 W/m2
11:09 46 °F 38.4 °F 30.36 in SSW 4.3 mph 8 mph 74.8% 0.00 in 123 W/m2
11:14 46.1 °F 38.4 °F 30.36 in SSW 0.9 mph 6 mph 74% 0.00 in 137 W/m2
11:19 46.2 °F 38.3 °F 30.35 in WSW 5.8 mph 9 mph 73.4% 0.00 in 128 W/m2
11:24 46 °F 37.9 °F 30.35 in WSW 3.4 mph 7 mph 73% 0.00 in 149 W/m2
11:29 46.3 °F 38 °F 30.35 in WSW 4.9 mph 8 mph 72.6% 0.00 in 165 W/m2
11:34 46.6 °F 38.1 °F 30.35 in WSW 2.4 mph 7 mph 71.8% 0.00 in 285 W/m2
11:39 47.2 °F 38.2 °F 30.34 in WSW 3.7 mph 7 mph 71% 0.00 in 285 W/m2
11:44 47.6 °F 38.3 °F 30.34 in WSW 5.5 mph 9 mph 70% 0.00 in 272 W/m2
11:49 47.8 °F 38.5 °F 30.34 in WSW 5.3 mph 9 mph 69.8% 0.00 in 274 W/m2
11:54 48.2 °F 38.4 °F 30.34 in WSW 6.9 mph 11 mph 68.8% 0.00 in 269 W/m2
11:59 48.4 °F 38.8 °F 30.33 in WSW 5.1 mph 11 mph 69.6% 0.00 in 251 W/m2
12:04 48.4 °F 38.6 °F 30.33 in WSW 4.5 mph 8 mph 68.8% 0.00 in 188 W/m2
12:09 48.5 °F 38.3 °F 30.33 in WSW 4.4 mph 11 mph 67.8% 0.00 in 206 W/m2
12:14 48.5 °F 37.4 °F 30.32 in SW 4.8 mph 11 mph 65.4% 0.00 in 207 W/m2
12:19 48.5 °F 36.5 °F 30.32 in SW 4.8 mph 9 mph 63.4% 0.00 in 206 W/m2
12:24 48.5 °F 36.7 °F 30.32 in WSW 3.5 mph 8 mph 63.8% 0.00 in 193 W/m2
12:29 48.6 °F 36.7 °F 30.32 in WSW 3.6 mph 8 mph 63.6% 0.00 in 197 W/m2
12:33 48.6 °F 37 °F 30.32 in WSW 4.8 mph 8 mph 64.3% 0.00 in 149 W/m2
12:39 48.6 °F 36.9 °F 30.31 in WSW 3.6 mph 6 mph 64% 0.00 in 174 W/m2
12:44 48.7 °F 37.1 °F 30.31 in WSW 2.2 mph 7 mph 64.2% 0.00 in 195 W/m2
12:49 49.4 °F 37.7 °F 30.31 in WSW 2.2 mph 5 mph 64% 0.00 in 232 W/m2
12:54 49.6 °F 37.9 °F 30.30 in WSW 6 mph 12 mph 64% 0.00 in 230 W/m2
12:59 49.5 °F 37.7 °F 30.30 in SW 5.9 mph 15 mph 63.8% 0.00 in 216 W/m2
13:04 49.5 °F 38 °F 30.30 in SW 4.4 mph 7 mph 64.4% 0.00 in 202 W/m2
13:09 49.6 °F 38.3 °F 30.30 in SSW 2.7 mph 6 mph 65% 0.00 in 193 W/m2
13:14 49.8 °F 38.5 °F 30.29 in SW 3.5 mph 7 mph 65% 0.00 in 185 W/m2
13:19 49.4 °F 38.3 °F 30.29 in SW 2.9 mph 7 mph 65.4% 0.00 in 188 W/m2
13:24 49.5 °F 38.9 °F 30.29 in SW 2 mph 7 mph 66.6% 0.00 in 185 W/m2
13:29 49.1 °F 38.8 °F 30.29 in WSW 5.6 mph 8 mph 67.2% 0.00 in 163 W/m2
13:34 48.7 °F 39.1 °F 30.28 in SW 6 mph 10 mph 69.4% 0.00 in 162 W/m2
13:39 48.7 °F 39.7 °F 30.28 in SW 1.4 mph 6 mph 71% 0.00 in 156 W/m2
13:44 49.5 °F 40.5 °F 30.28 in SW 3.7 mph 9 mph 71% 0.00 in 160 W/m2
13:49 49.5 °F 40.5 °F 30.28 in SW 3.2 mph 9 mph 71% 0.00 in 178 W/m2
13:54 49.3 °F 40.4 °F 30.29 in SSW 4.1 mph 9 mph 71.6% 0.00 in 188 W/m2
13:59 49.5 °F 40.8 °F 30.28 in SSW 4.5 mph 7 mph 72% 0.00 in 185 W/m2
14:04 49.6 °F 41.1 °F 30.28 in WSW 3.6 mph 8 mph 72.2% 0.00 in 171 W/m2
14:09 49.6 °F 41.2 °F 30.28 in SW 5.1 mph 8 mph 72.8% 0.00 in 163 W/m2
14:14 49.3 °F 41 °F 30.28 in SW 4.9 mph 8 mph 73% 0.00 in 163 W/m2
14:19 49.3 °F 41 °F 30.27 in SW 4.6 mph 8 mph 73.2% 0.00 in 123 W/m2
14:24 48.9 °F 40.8 °F 30.27 in SSW 3.8 mph 7 mph 73.4% 0.00 in 79 W/m2
14:29 48.5 °F 40.2 °F 30.27 in SSW 4.2 mph 9 mph 73% 0.00 in 67 W/m2
14:34 48.3 °F 40.1 °F 30.27 in SW 4.8 mph 9 mph 73.2% 0.00 in 70 W/m2
14:39 48.4 °F 40.5 °F 30.27 in SW 2.5 mph 7 mph 74% 0.00 in 100 W/m2
14:44 48.8 °F 40.9 °F 30.27 in SW 0.5 mph 4 mph 74% 0.00 in 95 W/m2
14:49 49.5 °F 41.5 °F 30.27 in Calm   3 mph 73.8% 0.00 in 88 W/m2
14:54 49.7 °F 41.2 °F 30.27 in SW 2.4 mph 6 mph 72.4% 0.00 in 79 W/m2
14:59 49.5 °F 41.1 °F 30.27 in SW 1.9 mph 5 mph 72.8% 0.00 in 69 W/m2
15:04 49.3 °F 41.1 °F 30.27 in SW 2.5 mph 6 mph 73% 0.00 in 54 W/m2
15:09 49.3 °F 41.2 °F 30.27 in SW 4.2 mph 7 mph 73.6% 0.00 in 51 W/m2
15:14 49.2 °F 40.9 °F 30.27 in SW 3.4 mph 8 mph 73% 0.00 in 47 W/m2
15:19 49.1 °F 40.8 °F 30.27 in SW 1.6 mph 6 mph 73% 0.00 in 42 W/m2
15:24 49.1 °F 40.8 °F 30.27 in SW 3 mph 6 mph 73% 0.00 in 37 W/m2
15:29 49 °F 41.1 °F 30.27 in SW 3 mph 6 mph 74% 0.00 in 32 W/m2
15:34 48.9 °F 41 °F 30.27 in SW 3.3 mph 6 mph 74% 0.00 in 23 W/m2
15:39 48.7 °F 40.8 °F 30.27 in SW 3 mph 6 mph 74% 0.00 in 21 W/m2
15:44 48.5 °F 40.5 °F 30.27 in SW 1.7 mph 5 mph 74% 0.00 in 16 W/m2
15:49 48.1 °F 40.2 °F 30.27 in SW 2 mph 6 mph 74% 0.00 in 12 W/m2
15:54 47.8 °F 40.1 °F 30.27 in SW 1.6 mph 6 mph 74.6% 0.00 in 11 W/m2
15:59 47.7 °F 40.1 °F 30.27 in SW 0.6 mph 4 mph 75% 0.00 in 9 W/m2
16:04 47.7 °F 40.1 °F 30.27 in Calm   2 mph 75% 0.00 in 7 W/m2
16:08 47.6 °F 40 °F 30.27 in Calm   1 mph 75% 0.00 in 0 W/m2
16:14 47.5 °F 40.2 °F 30.27 in Calm     75.8% 0.00 in 0 W/m2
16:19 47.2 °F 40 °F 30.27 in Calm     76% 0.00 in 0 W/m2
16:24 47.2 °F 40 °F 30.27 in Calm     76% 0.00 in 0 W/m2
16:29 47.1 °F 39.9 °F 30.27 in Calm     76% 0.00 in 0 W/m2
16:34 46.8 °F 39.6 °F 30.27 in Calm     76% 0.00 in 0 W/m2
16:39 46.4 °F 39.5 °F 30.27 in Calm     77% 0.00 in 0 W/m2
16:44 45.8 °F 38.9 °F 30.26 in Calm     77% 0.00 in 0 W/m2
16:49 45.1 °F 38.2 °F 30.26 in Calm     77% 0.00 in 0 W/m2
16:54 44.6 °F 37.8 °F 30.26 in Calm     77.2% 0.00 in 0 W/m2
16:59 44.1 °F 37.7 °F 30.26 in Calm     78% 0.00 in 0 W/m2
17:04 43.8 °F 37.3 °F 30.26 in Calm     78% 0.00 in 0 W/m2
17:09 43.4 °F 36.9 °F 30.26 in Calm     78% 0.00 in 0 W/m2
17:14 43.1 °F 36.7 °F 30.25 in Calm     78% 0.00 in 0 W/m2
17:19 42.5 °F 36.3 °F 30.25 in Calm     78.8% 0.00 in 0 W/m2
17:24 42.2 °F 36.4 °F 30.26 in Calm     79.8% 0.00 in 0 W/m2
17:29 41.9 °F 36.5 °F 30.26 in SW 0.8 mph 2 mph 81% 0.00 in 0 W/m2
17:34 41.7 °F 36.7 °F 30.26 in Calm   1 mph 82% 0.00 in 0 W/m2
17:39 41.5 °F 36.5 °F 30.26 in Calm   1 mph 82% 0.00 in 0 W/m2
17:44 41.5 °F 36.7 °F 30.26 in Calm     83% 0.00 in 0 W/m2
17:49 41.4 °F 36.5 °F 30.26 in SW 0.2 mph 1 mph 83% 0.00 in 0 W/m2
17:54 41.4 °F 36.7 °F 30.25 in Calm     83.4% 0.00 in 0 W/m2
17:59 41.2 °F 36.7 °F 30.26 in Calm     84% 0.00 in 0 W/m2
18:04 41.1 °F 36.6 °F 30.25 in Calm     84% 0.00 in 0 W/m2
18:09 41.2 °F 36.7 °F 30.25 in Calm     84% 0.00 in 0 W/m2
18:14 41.2 °F 36.8 °F 30.25 in Calm     84.4% 0.00 in 0 W/m2
18:19 41.1 °F 36.9 °F 30.25 in Calm     85% 0.00 in 0 W/m2
18:24 41.1 °F 37 °F 30.25 in Calm     85% 0.00 in 0 W/m2
18:29 40.9 °F 36.8 °F 30.25 in Calm     85% 0.00 in 0 W/m2
18:34 40.8 °F 36.7 °F 30.25 in Calm     85% 0.00 in 0 W/m2
18:39 40.6 °F 36.5 °F 30.25 in Calm     85% 0.00 in 0 W/m2
18:44 40.5 °F 36.5 °F 30.25 in Calm     85.2% 0.00 in 0 W/m2
18:49 40.5 °F 36.7 °F 30.25 in Calm     86% 0.00 in 0 W/m2
18:54 40.5 °F 36.7 °F 30.25 in Calm     86% 0.00 in 0 W/m2
18:59 40.5 °F 36.7 °F 30.25 in Calm     86% 0.00 in 0 W/m2
19:04 40.6 °F 36.8 °F 30.25 in Calm     86% 0.00 in 0 W/m2
19:09 40.4 °F 36.6 °F 30.24 in Calm     86% 0.00 in 0 W/m2
19:14 40.3 °F 36.5 °F 30.24 in Calm     86% 0.00 in 0 W/m2
19:19 40.3 °F 36.7 °F 30.24 in Calm     87% 0.00 in 0 W/m2
19:24 40.3 °F 36.7 °F 30.24 in Calm     87% 0.00 in 0 W/m2
19:29 40.3 °F 36.7 °F 30.24 in Calm     87% 0.00 in 0 W/m2
19:34 40.3 °F 36.7 °F 30.24 in Calm     87% 0.00 in 0 W/m2
19:39 40.3 °F 36.7 °F 30.24 in Calm     87% 0.00 in 0 W/m2
19:44 40 °F 36.4 °F 30.24 in Calm     87% 0.00 in 0 W/m2
19:49 39.7 °F 36.1 °F 30.24 in Calm     87% 0.00 in 0 W/m2
19:54 39.7 °F 36.2 °F 30.24 in Calm     87.2% 0.00 in 0 W/m2
19:59 39.6 °F 36.3 °F 30.23 in Calm     88% 0.00 in 0 W/m2
20:04 39.3 °F 35.9 °F 30.23 in Calm     87.5% 0.00 in 0 W/m2
20:09 39.2 °F 36 °F 30.23 in Calm     88% 0.00 in 0 W/m2
20:14 39.1 °F 35.9 °F 30.23 in Calm     88% 0.00 in 0 W/m2
20:19 38.8 °F 35.6 °F 30.23 in Calm     88% 0.00 in 0 W/m2
20:24 38.7 °F 35.4 °F 30.23 in Calm     88% 0.00 in 0 W/m2
20:29 38.5 °F 35.2 °F 30.23 in Calm     88% 0.00 in 0 W/m2
20:34 38.5 °F 35.2 °F 30.23 in Calm     88% 0.00 in 0 W/m2
20:39 38.1 °F 34.9 °F 30.22 in Calm     88% 0.00 in 0 W/m2
20:44 38.1 °F 34.9 °F 30.22 in Calm     88% 0.00 in 0 W/m2
20:49 37.9 °F 35.1 °F 30.22 in Calm     89% 0.00 in 0 W/m2
20:54 37.8 °F 34.9 °F 30.22 in Calm     88.8% 0.00 in 0 W/m2
20:59 37.6 °F 34.7 °F 30.22 in Calm     89% 0.00 in 0 W/m2
21:04 37.6 °F 34.7 °F 30.22 in Calm     89% 0.00 in 0 W/m2
21:09 37.4 °F 34.5 °F 30.23 in Calm     89% 0.00 in 0 W/m2
21:14 37.5 °F 34.6 °F 30.23 in Calm     89% 0.00 in 0 W/m2
21:19 37.3 °F 34.4 °F 30.22 in Calm     89% 0.00 in 0 W/m2
21:23 37 °F 34.2 °F 30.22 in Calm     89% 0.00 in 0 W/m2
21:29 37 °F 34.2 °F 30.22 in Calm     89% 0.00 in 0 W/m2
21:34 36.9 °F 34 °F 30.22 in Calm     89% 0.00 in 0 W/m2
21:39 36.8 °F 33.9 °F 30.22 in Calm     89% 0.00 in 0 W/m2
21:43 36.8 °F 33.9 °F 30.22 in Calm     89% 0.00 in 0 W/m2
21:49 36.7 °F 34 °F 30.22 in Calm     89.8% 0.00 in 0 W/m2
21:54 36.7 °F 34 °F 30.22 in Calm     90% 0.00 in 0 W/m2
21:59 36.7 °F 34 °F 30.22 in Calm     90% 0.00 in 0 W/m2
22:04 36.7 °F 34 °F 30.22 in Calm     90% 0.00 in 0 W/m2
22:09 36.4 °F 33.7 °F 30.22 in Calm     90% 0.00 in 0 W/m2
22:14 36.2 °F 33.5 °F 30.21 in Calm     90% 0.00 in 0 W/m2
22:19 36.1 °F 33.4 °F 30.22 in Calm     90% 0.00 in 0 W/m2
22:24 36.1 °F 33.4 °F 30.21 in Calm     90% 0.00 in 0 W/m2
22:29 36.1 °F 33.4 °F 30.21 in Calm     90% 0.00 in 0 W/m2
22:34 36 °F 33.3 °F 30.21 in Calm     90% 0.00 in 0 W/m2
22:39 36 °F 33.3 °F 30.21 in Calm     90% 0.00 in 0 W/m2
22:44 35.8 °F 33.1 °F 30.21 in Calm     90% 0.00 in 0 W/m2
22:49 35.5 °F 32.8 °F 30.21 in Calm     90% 0.00 in 0 W/m2
22:54 35.3 °F 32.9 °F 30.21 in Calm     90.6% 0.00 in 0 W/m2
22:59 35.2 °F 32.5 °F 30.21 in Calm     90% 0.00 in 0 W/m2
23:04 35.4 °F 33.1 °F 30.21 in Calm     91% 0.00 in 0 W/m2
23:09 35.4 °F 33.1 °F 30.21 in Calm     91% 0.00 in 0 W/m2
23:14 35.4 °F 33.1 °F 30.21 in Calm     91% 0.00 in 0 W/m2
23:19 35.2 °F 32.9 °F 30.21 in Calm     91% 0.00 in 0 W/m2
23:24 35 °F 32.6 °F 30.21 in Calm     91% 0.00 in 0 W/m2
23:29 34.9 °F 32.5 °F 30.21 in Calm     91% 0.00 in 0 W/m2
23:34 34.9 °F 32.5 °F 30.21 in Calm     91% 0.00 in 0 W/m2
23:39 34.9 °F 32.5 °F 30.21 in Calm     91% 0.00 in 0 W/m2
23:44 34.9 °F 32.5 °F 30.20 in Calm     91% 0.00 in 0 W/m2
23:49 34.8 °F 32.4 °F 30.20 in Calm     91% 0.00 in 0 W/m2
23:54 34.6 °F 32.3 °F 30.20 in Calm     91% 0.00 in 0 W/m2
23:59 34.5 °F 32.2 °F 30.20 in Calm     91% 0.00 in 0 W/m2
Bath Spa Weather
Compliments of Weather Underground - 2 mb